sensor_id;sensor_type;location;lat;lon;timestamp;pressure;altitude;pressure_sealevel;temperature;humidity
15314;BME280;7757;52.626;4.746;2023-04-15T00:01:49;100795.16;;;12.83;58.89
15314;BME280;7757;52.626;4.746;2023-04-15T00:04:34;100790.13;;;12.67;60.05
15314;BME280;7757;52.626;4.746;2023-04-15T00:07:20;100788.28;;;12.68;59.75
15314;BME280;7757;52.626;4.746;2023-04-15T00:10:07;100797.88;;;12.90;58.21
15314;BME280;7757;52.626;4.746;2023-04-15T00:12:52;100795.06;;;13.37;58.03
15314;BME280;7757;52.626;4.746;2023-04-15T00:15:37;100798.66;;;12.91;57.93
15314;BME280;7757;52.626;4.746;2023-04-15T00:18:24;100798.78;;;13.10;58.88
15314;BME280;7757;52.626;4.746;2023-04-15T00:21:09;100798.00;;;13.43;60.09
15314;BME280;7757;52.626;4.746;2023-04-15T00:23:55;100796.63;;;12.93;58.53
15314;BME280;7757;52.626;4.746;2023-04-15T00:26:40;100800.00;;;13.08;60.13
15314;BME280;7757;52.626;4.746;2023-04-15T00:29:26;100807.91;;;12.00;59.53
15314;BME280;7757;52.626;4.746;2023-04-15T00:32:11;100799.34;;;13.06;59.91
15314;BME280;7757;52.626;4.746;2023-04-15T00:34:58;100804.97;;;13.11;58.66
15314;BME280;7757;52.626;4.746;2023-04-15T00:37:43;100804.91;;;12.50;61.36
15314;BME280;7757;52.626;4.746;2023-04-15T00:40:28;100801.28;;;14.04;58.79
15314;BME280;7757;52.626;4.746;2023-04-15T00:43:13;100806.66;;;13.45;58.77
15314;BME280;7757;52.626;4.746;2023-04-15T00:45:59;100797.59;;;12.78;59.98
15314;BME280;7757;52.626;4.746;2023-04-15T00:48:46;100816.97;;;13.34;58.91
15314;BME280;7757;52.626;4.746;2023-04-15T00:51:33;100812.09;;;12.09;60.84
15314;BME280;7757;52.626;4.746;2023-04-15T00:54:19;100813.50;;;12.80;61.98
15314;BME280;7757;52.626;4.746;2023-04-15T00:57:05;100813.09;;;13.63;58.21
15314;BME280;7757;52.626;4.746;2023-04-15T00:59:52;100817.28;;;13.05;58.36
15314;BME280;7757;52.626;4.746;2023-04-15T01:02:37;100813.75;;;12.44;60.38
15314;BME280;7757;52.626;4.746;2023-04-15T01:05:23;100820.88;;;13.12;60.23
15314;BME280;7757;52.626;4.746;2023-04-15T01:08:09;100819.94;;;12.45;60.87
15314;BME280;7757;52.626;4.746;2023-04-15T01:10:55;100821.91;;;13.18;59.59
15314;BME280;7757;52.626;4.746;2023-04-15T01:13:41;100814.28;;;13.34;59.02
15314;BME280;7757;52.626;4.746;2023-04-15T01:16:26;100813.09;;;13.57;59.72
15314;BME280;7757;52.626;4.746;2023-04-15T01:19:13;100818.66;;;13.55;59.49
15314;BME280;7757;52.626;4.746;2023-04-15T01:22:01;100802.38;;;12.83;59.59
15314;BME280;7757;52.626;4.746;2023-04-15T01:24:54;100814.34;;;12.80;61.80
15314;BME280;7757;52.626;4.746;2023-04-15T01:27:43;100824.53;;;13.05;61.04
15314;BME280;7757;52.626;4.746;2023-04-15T01:30:28;100825.22;;;13.20;60.00
15314;BME280;7757;52.626;4.746;2023-04-15T01:33:13;100831.03;;;12.76;60.95
15314;BME280;7757;52.626;4.746;2023-04-15T01:35:59;100820.50;;;13.28;61.18
15314;BME280;7757;52.626;4.746;2023-04-15T01:38:44;100819.59;;;12.54;60.73
15314;BME280;7757;52.626;4.746;2023-04-15T01:41:29;100816.59;;;12.77;61.81
15314;BME280;7757;52.626;4.746;2023-04-15T01:44:16;100809.88;;;13.07;59.95
15314;BME280;7757;52.626;4.746;2023-04-15T01:47:01;100804.97;;;13.24;61.93
15314;BME280;7757;52.626;4.746;2023-04-15T01:49:47;100806.69;;;13.51;61.63
15314;BME280;7757;52.626;4.746;2023-04-15T01:52:32;100821.28;;;13.09;61.02
15314;BME280;7757;52.626;4.746;2023-04-15T01:55:17;100818.41;;;13.11;61.39
15314;BME280;7757;52.626;4.746;2023-04-15T01:58:03;100824.22;;;12.73;60.75
15314;BME280;7757;52.626;4.746;2023-04-15T02:00:49;100830.72;;;12.99;61.83
15314;BME280;7757;52.626;4.746;2023-04-15T02:03:36;100825.50;;;12.84;61.11
15314;BME280;7757;52.626;4.746;2023-04-15T02:06:22;100838.19;;;12.62;62.69
15314;BME280;7757;52.626;4.746;2023-04-15T02:09:07;100826.69;;;12.68;62.80
15314;BME280;7757;52.626;4.746;2023-04-15T02:11:53;100836.25;;;13.77;60.20
15314;BME280;7757;52.626;4.746;2023-04-15T02:14:38;100839.53;;;12.86;60.54
15314;BME280;7757;52.626;4.746;2023-04-15T02:17:25;100845.09;;;12.44;61.99
15314;BME280;7757;52.626;4.746;2023-04-15T02:20:11;100840.41;;;13.00;60.94
15314;BME280;7757;52.626;4.746;2023-04-15T02:22:56;100846.91;;;12.30;63.05
15314;BME280;7757;52.626;4.746;2023-04-15T02:25:41;100832.88;;;12.00;63.64
15314;BME280;7757;52.626;4.746;2023-04-15T02:28:27;100853.38;;;12.14;62.86
15314;BME280;7757;52.626;4.746;2023-04-15T02:31:12;100849.53;;;12.23;62.48
15314;BME280;7757;52.626;4.746;2023-04-15T02:33:59;100850.13;;;11.91;64.06
15314;BME280;7757;52.626;4.746;2023-04-15T02:36:47;100844.03;;;12.79;63.04
15314;BME280;7757;52.626;4.746;2023-04-15T02:39:32;100854.19;;;12.83;63.86
15314;BME280;7757;52.626;4.746;2023-04-15T02:42:17;100855.88;;;12.16;62.35
15314;BME280;7757;52.626;4.746;2023-04-15T02:45:05;100834.44;;;12.16;64.05
15314;BME280;7757;52.626;4.746;2023-04-15T02:47:50;100864.84;;;12.29;61.36
15314;BME280;7757;52.626;4.746;2023-04-15T02:50:37;100868.94;;;11.98;63.73
15314;BME280;7757;52.626;4.746;2023-04-15T02:53:23;100853.81;;;12.18;62.97
15314;BME280;7757;52.626;4.746;2023-04-15T02:56:10;100878.66;;;12.67;62.49
15314;BME280;7757;52.626;4.746;2023-04-15T02:58:58;100867.97;;;11.84;65.64
15314;BME280;7757;52.626;4.746;2023-04-15T03:01:43;100866.41;;;12.99;61.88
15314;BME280;7757;52.626;4.746;2023-04-15T03:04:29;100867.09;;;12.60;63.88
15314;BME280;7757;52.626;4.746;2023-04-15T03:07:16;100870.69;;;12.46;64.09
15314;BME280;7757;52.626;4.746;2023-04-15T03:10:02;100867.16;;;12.73;63.27
15314;BME280;7757;52.626;4.746;2023-04-15T03:12:47;100866.97;;;12.75;62.57
15314;BME280;7757;52.626;4.746;2023-04-15T03:15:33;100879.16;;;13.25;62.24
15314;BME280;7757;52.626;4.746;2023-04-15T03:18:18;100867.50;;;13.05;61.18
15314;BME280;7757;52.626;4.746;2023-04-15T03:21:03;100880.75;;;12.38;63.67
15314;BME280;7757;52.626;4.746;2023-04-15T03:23:50;100880.66;;;11.97;64.34
15314;BME280;7757;52.626;4.746;2023-04-15T03:26:36;100880.13;;;11.80;64.05
15314;BME280;7757;52.626;4.746;2023-04-15T03:29:21;100900.91;;;12.27;63.10
15314;BME280;7757;52.626;4.746;2023-04-15T03:32:07;100893.22;;;13.33;61.64
15314;BME280;7757;52.626;4.746;2023-04-15T03:34:52;100905.38;;;12.20;63.65
15314;BME280;7757;52.626;4.746;2023-04-15T03:37:37;100904.19;;;12.91;63.74
15314;BME280;7757;52.626;4.746;2023-04-15T03:40:24;100903.75;;;12.19;63.27
15314;BME280;7757;52.626;4.746;2023-04-15T03:43:09;100908.91;;;12.20;64.34
15314;BME280;7757;52.626;4.746;2023-04-15T03:45:55;100921.38;;;12.62;63.94
15314;BME280;7757;52.626;4.746;2023-04-15T03:48:40;100922.47;;;12.12;64.26
15314;BME280;7757;52.626;4.746;2023-04-15T03:51:26;100918.22;;;12.24;62.76
15314;BME280;7757;52.626;4.746;2023-04-15T03:54:11;100922.63;;;12.11;63.89
15314;BME280;7757;52.626;4.746;2023-04-15T03:56:59;100922.94;;;12.50;63.59
15314;BME280;7757;52.626;4.746;2023-04-15T03:59:44;100912.00;;;11.96;64.36
15314;BME280;7757;52.626;4.746;2023-04-15T04:02:30;100934.22;;;11.90;64.91
15314;BME280;7757;52.626;4.746;2023-04-15T04:05:15;100918.75;;;12.69;62.95
15314;BME280;7757;52.626;4.746;2023-04-15T04:08:01;100923.97;;;12.49;63.90
15314;BME280;7757;52.626;4.746;2023-04-15T04:10:46;100929.94;;;13.13;62.54
15314;BME280;7757;52.626;4.746;2023-04-15T04:13:33;100943.19;;;12.25;63.72
15314;BME280;7757;52.626;4.746;2023-04-15T04:16:18;100941.28;;;12.19;64.93
15314;BME280;7757;52.626;4.746;2023-04-15T04:19:04;100942.47;;;13.06;63.06
15314;BME280;7757;52.626;4.746;2023-04-15T04:21:50;100949.09;;;12.42;64.16
15314;BME280;7757;52.626;4.746;2023-04-15T04:24:35;100947.88;;;12.44;63.67
15314;BME280;7757;52.626;4.746;2023-04-15T04:27:20;100949.09;;;12.76;64.75
15314;BME280;7757;52.626;4.746;2023-04-15T04:30:08;100960.72;;;11.64;66.09
15314;BME280;7757;52.626;4.746;2023-04-15T04:32:53;100962.88;;;11.90;65.23
15314;BME280;7757;52.626;4.746;2023-04-15T04:35:38;100960.38;;;11.88;66.05
15314;BME280;7757;52.626;4.746;2023-04-15T04:38:24;100960.28;;;12.24;65.90
15314;BME280;7757;52.626;4.746;2023-04-15T04:41:09;100968.72;;;11.79;66.42
15314;BME280;7757;52.626;4.746;2023-04-15T04:43:56;100975.69;;;12.37;63.68
15314;BME280;7757;52.626;4.746;2023-04-15T04:46:45;100960.41;;;12.65;64.51
15314;BME280;7757;52.626;4.746;2023-04-15T04:49:31;100979.16;;;12.93;63.39
15314;BME280;7757;52.626;4.746;2023-04-15T04:52:16;100979.53;;;12.27;65.30
15314;BME280;7757;52.626;4.746;2023-04-15T04:55:01;100990.59;;;11.46;66.20
15314;BME280;7757;52.626;4.746;2023-04-15T04:57:47;100995.09;;;12.66;64.36
15314;BME280;7757;52.626;4.746;2023-04-15T05:00:32;100993.06;;;11.98;66.33
15314;BME280;7757;52.626;4.746;2023-04-15T05:03:19;100992.16;;;12.89;63.53
15314;BME280;7757;52.626;4.746;2023-04-15T05:06:04;101006.25;;;12.21;65.13
15314;BME280;7757;52.626;4.746;2023-04-15T05:08:51;101017.56;;;11.95;65.57
15314;BME280;7757;52.626;4.746;2023-04-15T05:11:37;101031.22;;;11.50;66.54
15314;BME280;7757;52.626;4.746;2023-04-15T05:14:22;101033.53;;;12.03;66.33
15314;BME280;7757;52.626;4.746;2023-04-15T05:17:07;101034.81;;;11.71;65.77
15314;BME280;7757;52.626;4.746;2023-04-15T05:19:55;101027.84;;;11.92;66.10
15314;BME280;7757;52.626;4.746;2023-04-15T05:22:40;101045.91;;;12.25;64.21
15314;BME280;7757;52.626;4.746;2023-04-15T05:25:26;101050.31;;;12.12;66.04
15314;BME280;7757;52.626;4.746;2023-04-15T05:28:11;101050.44;;;12.04;66.04
15314;BME280;7757;52.626;4.746;2023-04-15T05:30:56;101057.59;;;13.16;63.29
15314;BME280;7757;52.626;4.746;2023-04-15T05:33:42;101060.31;;;12.67;64.89
15314;BME280;7757;52.626;4.746;2023-04-15T05:36:28;101060.94;;;11.69;65.85
15314;BME280;7757;52.626;4.746;2023-04-15T05:39:14;101044.88;;;11.69;66.86
15314;BME280;7757;52.626;4.746;2023-04-15T05:41:59;101058.44;;;13.16;63.20
15314;BME280;7757;52.626;4.746;2023-04-15T05:44:45;101074.91;;;12.15;64.51
15314;BME280;7757;52.626;4.746;2023-04-15T05:47:30;101075.66;;;12.30;64.35
15314;BME280;7757;52.626;4.746;2023-04-15T05:50:15;101083.97;;;12.36;64.50
15314;BME280;7757;52.626;4.746;2023-04-15T05:53:02;101093.19;;;12.75;63.39
15314;BME280;7757;52.626;4.746;2023-04-15T05:55:48;101100.19;;;12.98;64.11
15314;BME280;7757;52.626;4.746;2023-04-15T05:58:33;101105.53;;;12.06;64.78
15314;BME280;7757;52.626;4.746;2023-04-15T06:01:19;101110.09;;;12.69;64.96
15314;BME280;7757;52.626;4.746;2023-04-15T06:04:05;101117.53;;;12.31;64.06
15314;BME280;7757;52.626;4.746;2023-04-15T06:06:50;101116.03;;;12.65;64.60
15314;BME280;7757;52.626;4.746;2023-04-15T06:09:37;101118.16;;;12.48;65.00
15314;BME280;7757;52.626;4.746;2023-04-15T06:12:22;101118.00;;;12.56;64.05
15314;BME280;7757;52.626;4.746;2023-04-15T06:15:08;101133.91;;;14.03;60.40
15314;BME280;7757;52.626;4.746;2023-04-15T06:17:54;101132.03;;;13.56;60.49
15314;BME280;7757;52.626;4.746;2023-04-15T06:20:39;101145.63;;;13.48;60.72
15314;BME280;7757;52.626;4.746;2023-04-15T06:23:25;101149.03;;;14.04;60.06
15314;BME280;7757;52.626;4.746;2023-04-15T06:26:11;101155.81;;;13.59;60.32
15314;BME280;7757;52.626;4.746;2023-04-15T06:28:59;101165.00;;;14.19;58.20
15314;BME280;7757;52.626;4.746;2023-04-15T06:31:46;101164.16;;;13.71;60.10
15314;BME280;7757;52.626;4.746;2023-04-15T06:34:31;101169.50;;;14.12;59.47
15314;BME280;7757;52.626;4.746;2023-04-15T06:37:16;101170.34;;;14.12;59.12
15314;BME280;7757;52.626;4.746;2023-04-15T06:40:02;101177.75;;;14.04;59.30
15314;BME280;7757;52.626;4.746;2023-04-15T06:42:49;101179.00;;;14.48;58.25
15314;BME280;7757;52.626;4.746;2023-04-15T06:45:34;101180.56;;;14.30;58.49
15314;BME280;7757;52.626;4.746;2023-04-15T06:48:20;101181.72;;;14.14;58.74
15314;BME280;7757;52.626;4.746;2023-04-15T06:51:05;101193.59;;;14.93;56.83
15314;BME280;7757;52.626;4.746;2023-04-15T06:53:51;101192.72;;;14.67;57.20
15314;BME280;7757;52.626;4.746;2023-04-15T06:56:36;101190.59;;;14.49;57.18
15314;BME280;7757;52.626;4.746;2023-04-15T06:59:23;101191.31;;;15.03;55.25
15314;BME280;7757;52.626;4.746;2023-04-15T07:02:11;101196.00;;;15.93;54.64
15314;BME280;7757;52.626;4.746;2023-04-15T07:04:57;101202.09;;;15.23;55.14
15314;BME280;7757;52.626;4.746;2023-04-15T07:07:43;101217.44;;;15.16;54.79
15314;BME280;7757;52.626;4.746;2023-04-15T07:10:28;101207.69;;;15.15;55.18
15314;BME280;7757;52.626;4.746;2023-04-15T07:13:16;101210.75;;;14.73;55.26
15314;BME280;7757;52.626;4.746;2023-04-15T07:16:03;101196.09;;;15.34;54.36
15314;BME280;7757;52.626;4.746;2023-04-15T07:18:48;101214.94;;;15.21;54.21
15314;BME280;7757;52.626;4.746;2023-04-15T07:21:34;101217.00;;;15.06;54.64
15314;BME280;7757;52.626;4.746;2023-04-15T07:24:19;101224.81;;;16.63;50.91
15314;BME280;7757;52.626;4.746;2023-04-15T07:27:06;101233.28;;;16.16;50.88
15314;BME280;7757;52.626;4.746;2023-04-15T07:29:51;101227.19;;;15.17;52.87
15314;BME280;7757;52.626;4.746;2023-04-15T07:32:38;101235.06;;;16.42;49.94
15314;BME280;7757;52.626;4.746;2023-04-15T07:35:23;101240.16;;;16.12;51.81
15314;BME280;7757;52.626;4.746;2023-04-15T07:38:09;101248.72;;;15.89;50.97
15314;BME280;7757;52.626;4.746;2023-04-15T07:40:55;101254.75;;;15.45;51.35
15314;BME280;7757;52.626;4.746;2023-04-15T07:43:41;101248.31;;;15.20;52.72
15314;BME280;7757;52.626;4.746;2023-04-15T07:46:27;101259.75;;;16.58;50.16
15314;BME280;7757;52.626;4.746;2023-04-15T07:49:13;101267.44;;;16.48;49.81
15314;BME280;7757;52.626;4.746;2023-04-15T07:51:59;101267.97;;;16.12;51.29
15314;BME280;7757;52.626;4.746;2023-04-15T07:54:44;101266.53;;;15.18;51.56
15314;BME280;7757;52.626;4.746;2023-04-15T07:57:29;101280.03;;;15.44;51.73
15314;BME280;7757;52.626;4.746;2023-04-15T08:00:15;101286.75;;;16.52;51.75
15314;BME280;7757;52.626;4.746;2023-04-15T08:03:01;101293.34;;;15.85;51.38
15314;BME280;7757;52.626;4.746;2023-04-15T08:05:47;101291.69;;;15.84;51.66
15314;BME280;7757;52.626;4.746;2023-04-15T08:08:33;101297.81;;;16.24;50.56
15314;BME280;7757;52.626;4.746;2023-04-15T08:11:18;101304.91;;;16.12;49.79
15314;BME280;7757;52.626;4.746;2023-04-15T08:14:03;101311.47;;;16.62;49.96
15314;BME280;7757;52.626;4.746;2023-04-15T08:16:49;101288.53;;;15.28;51.89
15314;BME280;7757;52.626;4.746;2023-04-15T08:19:34;101314.50;;;15.75;51.63
15314;BME280;7757;52.626;4.746;2023-04-15T08:22:21;101307.25;;;15.62;51.59
15314;BME280;7757;52.626;4.746;2023-04-15T08:25:07;101314.94;;;15.85;50.29
15314;BME280;7757;52.626;4.746;2023-04-15T08:27:54;101313.34;;;16.55;49.93
15314;BME280;7757;52.626;4.746;2023-04-15T08:30:39;101332.22;;;16.68;50.11
15314;BME280;7757;52.626;4.746;2023-04-15T08:33:25;101331.66;;;16.33;50.81
15314;BME280;7757;52.626;4.746;2023-04-15T08:36:10;101336.72;;;16.81;49.94
15314;BME280;7757;52.626;4.746;2023-04-15T08:38:58;101334.63;;;16.05;50.48
15314;BME280;7757;52.626;4.746;2023-04-15T08:41:45;101353.47;;;16.32;50.65
15314;BME280;7757;52.626;4.746;2023-04-15T08:44:33;101352.88;;;16.16;51.06
15314;BME280;7757;52.626;4.746;2023-04-15T08:47:20;101347.13;;;16.77;49.27
15314;BME280;7757;52.626;4.746;2023-04-15T08:50:08;101353.66;;;16.30;49.56
15314;BME280;7757;52.626;4.746;2023-04-15T08:52:54;101355.56;;;16.10;50.33
15314;BME280;7757;52.626;4.746;2023-04-15T08:55:44;101361.53;;;16.58;48.53
15314;BME280;7757;52.626;4.746;2023-04-15T08:58:30;101358.25;;;16.16;49.18
15314;BME280;7757;52.626;4.746;2023-04-15T09:01:15;101364.25;;;16.38;48.77
15314;BME280;7757;52.626;4.746;2023-04-15T09:04:02;101375.03;;;16.45;47.87
15314;BME280;7757;52.626;4.746;2023-04-15T09:06:49;101400.19;;;16.26;47.92
15314;BME280;7757;52.626;4.746;2023-04-15T09:09:35;101374.47;;;15.90;49.88
15314;BME280;7757;52.626;4.746;2023-04-15T09:12:24;101378.78;;;16.31;48.33
15314;BME280;7757;52.626;4.746;2023-04-15T09:15:10;101377.16;;;16.10;49.19
15314;BME280;7757;52.626;4.746;2023-04-15T09:17:56;101392.47;;;16.62;48.92
15314;BME280;7757;52.626;4.746;2023-04-15T09:20:41;101402.25;;;16.30;49.01
15314;BME280;7757;52.626;4.746;2023-04-15T09:23:26;101387.25;;;16.67;48.92
15314;BME280;7757;52.626;4.746;2023-04-15T09:26:12;101385.06;;;17.02;47.92
15314;BME280;7757;52.626;4.746;2023-04-15T09:29:06;101410.97;;;16.58;48.07
15314;BME280;7757;52.626;4.746;2023-04-15T09:31:52;101424.69;;;16.04;49.05
15314;BME280;7757;52.626;4.746;2023-04-15T09:34:37;101421.34;;;15.76;48.76
15314;BME280;7757;52.626;4.746;2023-04-15T09:37:34;101426.34;;;16.18;48.95
15314;BME280;7757;52.626;4.746;2023-04-15T09:40:33;101429.03;;;16.64;47.99
15314;BME280;7757;52.626;4.746;2023-04-15T09:43:18;101439.19;;;16.69;48.73
15314;BME280;7757;52.626;4.746;2023-04-15T09:46:05;101452.69;;;16.82;48.31
15314;BME280;7757;52.626;4.746;2023-04-15T09:49:06;101439.00;;;16.25;48.60
15314;BME280;7757;52.626;4.746;2023-04-15T09:51:57;101440.69;;;16.26;48.58
15314;BME280;7757;52.626;4.746;2023-04-15T09:54:44;101453.53;;;15.97;49.16
15314;BME280;7757;52.626;4.746;2023-04-15T09:57:33;101434.44;;;16.32;49.91
15314;BME280;7757;52.626;4.746;2023-04-15T10:00:19;101449.16;;;15.83;50.78
15314;BME280;7757;52.626;4.746;2023-04-15T10:03:06;101456.03;;;16.45;50.67
15314;BME280;7757;52.626;4.746;2023-04-15T10:05:57;101460.31;;;16.92;49.38
15314;BME280;7757;52.626;4.746;2023-04-15T10:08:42;101454.97;;;16.65;48.94
15314;BME280;7757;52.626;4.746;2023-04-15T10:11:29;101463.53;;;16.23;49.58
15314;BME280;7757;52.626;4.746;2023-04-15T10:14:15;101458.94;;;15.91;50.16
15314;BME280;7757;52.626;4.746;2023-04-15T10:17:01;101458.31;;;16.35;50.50
15314;BME280;7757;52.626;4.746;2023-04-15T10:19:52;101456.03;;;16.25;49.44
15314;BME280;7757;52.626;4.746;2023-04-15T10:22:39;101461.44;;;16.38;48.49
15314;BME280;7757;52.626;4.746;2023-04-15T10:25:26;101459.78;;;16.37;49.71
15314;BME280;7757;52.626;4.746;2023-04-15T10:28:11;101478.44;;;15.99;50.79
15314;BME280;7757;52.626;4.746;2023-04-15T10:30:56;101485.69;;;15.79;50.82
15314;BME280;7757;52.626;4.746;2023-04-15T10:33:43;101475.53;;;16.01;50.58
15314;BME280;7757;52.626;4.746;2023-04-15T10:36:31;101478.47;;;16.06;50.30
15314;BME280;7757;52.626;4.746;2023-04-15T10:39:41;101489.47;;;16.24;50.30
15314;BME280;7757;52.626;4.746;2023-04-15T10:42:33;101497.13;;;15.88;50.26
15314;BME280;7757;52.626;4.746;2023-04-15T10:45:19;101497.19;;;15.53;51.20
15314;BME280;7757;52.626;4.746;2023-04-15T10:48:06;101503.16;;;16.16;51.15
15314;BME280;7757;52.626;4.746;2023-04-15T10:50:55;101515.16;;;16.00;50.55
15314;BME280;7757;52.626;4.746;2023-04-15T10:53:42;101506.75;;;15.49;51.28
15314;BME280;7757;52.626;4.746;2023-04-15T10:56:28;101521.25;;;15.48;50.95
15314;BME280;7757;52.626;4.746;2023-04-15T10:59:15;101513.47;;;15.73;51.21
15314;BME280;7757;52.626;4.746;2023-04-15T11:02:02;101510.63;;;15.40;52.16
15314;BME280;7757;52.626;4.746;2023-04-15T11:04:51;101529.34;;;15.48;52.71
15314;BME280;7757;52.626;4.746;2023-04-15T11:07:47;101517.00;;;15.80;51.67
15314;BME280;7757;52.626;4.746;2023-04-15T11:10:52;101530.03;;;15.63;52.33
15314;BME280;7757;52.626;4.746;2023-04-15T11:13:46;101532.25;;;15.47;52.02
15314;BME280;7757;52.626;4.746;2023-04-15T11:16:41;101537.63;;;15.47;51.97
15314;BME280;7757;52.626;4.746;2023-04-15T11:19:35;101551.28;;;15.45;52.22
15314;BME280;7757;52.626;4.746;2023-04-15T11:22:20;101540.25;;;14.99;53.05
15314;BME280;7757;52.626;4.746;2023-04-15T11:25:06;101548.16;;;14.10;55.28
15314;BME280;7757;52.626;4.746;2023-04-15T11:27:53;101540.53;;;14.13;53.89
15314;BME280;7757;52.626;4.746;2023-04-15T11:30:41;101540.47;;;14.28;53.52
15314;BME280;7757;52.626;4.746;2023-04-15T11:33:26;101559.38;;;14.83;53.10
15314;BME280;7757;52.626;4.746;2023-04-15T11:36:12;101563.59;;;15.27;53.19
15314;BME280;7757;52.626;4.746;2023-04-15T11:38:58;101559.44;;;14.41;53.79
15314;BME280;7757;52.626;4.746;2023-04-15T11:41:44;101558.84;;;14.67;55.30
15314;BME280;7757;52.626;4.746;2023-04-15T11:44:30;101550.56;;;13.83;54.77
15314;BME280;7757;52.626;4.746;2023-04-15T11:47:22;101571.59;;;13.80;56.28
15314;BME280;7757;52.626;4.746;2023-04-15T11:50:16;101557.66;;;14.48;55.08
15314;BME280;7757;52.626;4.746;2023-04-15T11:53:03;101559.56;;;14.33;56.16
15314;BME280;7757;52.626;4.746;2023-04-15T11:55:49;101558.66;;;14.05;54.62
15314;BME280;7757;52.626;4.746;2023-04-15T11:58:36;101566.06;;;14.24;56.40
15314;BME280;7757;52.626;4.746;2023-04-15T12:01:31;101570.38;;;14.82;56.11
15314;BME280;7757;52.626;4.746;2023-04-15T12:04:17;101574.16;;;13.88;55.50
15314;BME280;7757;52.626;4.746;2023-04-15T12:07:05;101578.91;;;14.22;55.39
15314;BME280;7757;52.626;4.746;2023-04-15T12:09:54;101575.41;;;14.64;54.77
15314;BME280;7757;52.626;4.746;2023-04-15T12:12:40;101577.88;;;14.44;55.49
15314;BME280;7757;52.626;4.746;2023-04-15T12:15:26;101568.56;;;14.40;53.90
15314;BME280;7757;52.626;4.746;2023-04-15T12:18:17;101580.47;;;14.80;55.17
15314;BME280;7757;52.626;4.746;2023-04-15T12:21:08;101586.94;;;14.36;54.87
15314;BME280;7757;52.626;4.746;2023-04-15T12:23:55;101584.56;;;14.48;54.04
15314;BME280;7757;52.626;4.746;2023-04-15T12:26:44;101591.41;;;14.72;54.25
15314;BME280;7757;52.626;4.746;2023-04-15T12:29:31;101586.94;;;14.58;54.41
15314;BME280;7757;52.626;4.746;2023-04-15T12:32:17;101602.19;;;14.50;53.68
15314;BME280;7757;52.626;4.746;2023-04-15T12:35:06;101607.00;;;14.55;54.62
15314;BME280;7757;52.626;4.746;2023-04-15T12:37:52;101607.19;;;14.32;55.11
15314;BME280;7757;52.626;4.746;2023-04-15T12:40:37;101616.63;;;14.43;54.54
15314;BME280;7757;52.626;4.746;2023-04-15T12:43:23;101609.50;;;14.21;55.47
15314;BME280;7757;52.626;4.746;2023-04-15T12:46:09;101628.88;;;14.31;55.17
15314;BME280;7757;52.626;4.746;2023-04-15T12:48:54;101623.66;;;14.65;55.49
15314;BME280;7757;52.626;4.746;2023-04-15T12:51:41;101638.59;;;14.68;54.40
15314;BME280;7757;52.626;4.746;2023-04-15T12:54:26;101639.00;;;14.43;55.15
15314;BME280;7757;52.626;4.746;2023-04-15T12:57:11;101637.50;;;14.05;56.12
15314;BME280;7757;52.626;4.746;2023-04-15T12:59:57;101635.81;;;14.82;55.07
15314;BME280;7757;52.626;4.746;2023-04-15T13:02:43;101640.09;;;14.70;54.60
15314;BME280;7757;52.626;4.746;2023-04-15T13:05:28;101637.03;;;14.80;54.51
15314;BME280;7757;52.626;4.746;2023-04-15T13:08:15;101658.41;;;14.81;54.11
15314;BME280;7757;52.626;4.746;2023-04-15T13:11:01;101652.09;;;14.17;55.85
15314;BME280;7757;52.626;4.746;2023-04-15T13:13:46;101671.22;;;14.22;56.09
15314;BME280;7757;52.626;4.746;2023-04-15T13:16:32;101663.09;;;13.86;56.76
15314;BME280;7757;52.626;4.746;2023-04-15T13:19:18;101666.66;;;14.23;57.04
15314;BME280;7757;52.626;4.746;2023-04-15T13:22:03;101673.53;;;14.40;56.83
15314;BME280;7757;52.626;4.746;2023-04-15T13:24:51;101667.88;;;14.56;55.92
15314;BME280;7757;52.626;4.746;2023-04-15T13:27:36;101683.81;;;14.36;56.90
15314;BME280;7757;52.626;4.746;2023-04-15T13:30:22;101665.53;;;14.46;55.68
15314;BME280;7757;52.626;4.746;2023-04-15T13:33:07;101687.16;;;14.38;56.64
15314;BME280;7757;52.626;4.746;2023-04-15T13:35:52;101688.16;;;14.52;56.41
15314;BME280;7757;52.626;4.746;2023-04-15T13:38:38;101679.66;;;14.34;55.84
15314;BME280;7757;52.626;4.746;2023-04-15T13:41:25;101694.84;;;14.41;55.48
15314;BME280;7757;52.626;4.746;2023-04-15T13:44:10;101698.31;;;14.57;55.06
15314;BME280;7757;52.626;4.746;2023-04-15T13:46:55;101690.13;;;14.65;55.99
15314;BME280;7757;52.626;4.746;2023-04-15T13:49:40;101706.22;;;14.58;56.25
15314;BME280;7757;52.626;4.746;2023-04-15T13:52:26;101714.25;;;14.37;55.46
15314;BME280;7757;52.626;4.746;2023-04-15T13:55:11;101699.03;;;14.15;56.10
15314;BME280;7757;52.626;4.746;2023-04-15T13:57:58;101709.38;;;14.83;55.14
15314;BME280;7757;52.626;4.746;2023-04-15T14:00:44;101714.97;;;14.45;56.21
15314;BME280;7757;52.626;4.746;2023-04-15T14:03:29;101710.00;;;14.13;56.73
15314;BME280;7757;52.626;4.746;2023-04-15T14:06:14;101728.00;;;14.13;58.00
15314;BME280;7757;52.626;4.746;2023-04-15T14:08:59;101723.81;;;14.25;57.18
15314;BME280;7757;52.626;4.746;2023-04-15T14:11:45;101730.47;;;14.58;56.21
15314;BME280;7757;52.626;4.746;2023-04-15T14:14:32;101726.03;;;14.72;55.30
15314;BME280;7757;52.626;4.746;2023-04-15T14:17:17;101728.63;;;14.44;56.68
15314;BME280;7757;52.626;4.746;2023-04-15T14:20:06;101725.88;;;14.08;58.09
15314;BME280;7757;52.626;4.746;2023-04-15T14:22:51;101731.34;;;14.65;55.28
15314;BME280;7757;52.626;4.746;2023-04-15T14:25:36;101742.41;;;14.56;55.98
15314;BME280;7757;52.626;4.746;2023-04-15T14:28:23;101729.00;;;14.26;56.50
15314;BME280;7757;52.626;4.746;2023-04-15T14:31:10;101747.09;;;14.32;55.49
15314;BME280;7757;52.626;4.746;2023-04-15T14:33:55;101748.59;;;14.35;56.79
15314;BME280;7757;52.626;4.746;2023-04-15T14:36:41;101749.78;;;13.59;58.05
15314;BME280;7757;52.626;4.746;2023-04-15T14:39:26;101760.59;;;13.51;56.82
15314;BME280;7757;52.626;4.746;2023-04-15T14:42:11;101750.34;;;13.55;57.12